createdAt,value
2018-08-07T00:01:10.608Z,955.36
2018-08-07T00:03:37.754Z,955.41
2018-08-07T00:06:04.063Z,955.39
2018-08-07T00:08:30.423Z,955.38
2018-08-07T00:10:56.727Z,955.41
2018-08-07T00:13:23.039Z,955.35
2018-08-07T00:15:49.357Z,955.37
2018-08-07T00:18:15.664Z,955.37
2018-08-07T00:20:41.980Z,955.39
2018-08-07T00:23:08.312Z,955.47
2018-08-07T00:25:34.625Z,955.41
2018-08-07T00:28:00.941Z,955.41
2018-08-07T00:30:27.266Z,955.39
2018-08-07T00:32:53.577Z,955.35
2018-08-07T00:35:19.906Z,955.39
2018-08-07T00:37:46.274Z,955.40
2018-08-07T00:40:12.572Z,955.39
2018-08-07T00:42:38.911Z,955.37
2018-08-07T00:45:05.238Z,955.37
2018-08-07T00:47:31.553Z,955.41
2018-08-07T00:49:57.872Z,955.43
2018-08-07T00:52:24.178Z,955.34
2018-08-07T00:54:50.533Z,955.30
2018-08-07T00:57:16.843Z,955.29
2018-08-07T00:59:43.151Z,955.30
2018-08-07T01:02:09.460Z,955.32
2018-08-07T01:04:35.808Z,955.34
2018-08-07T01:07:02.120Z,955.36
2018-08-07T01:09:28.431Z,955.26
2018-08-07T01:11:54.784Z,955.31
2018-08-07T01:14:21.083Z,955.26
2018-08-07T01:16:47.433Z,955.34
2018-08-07T01:19:13.784Z,955.30
2018-08-07T01:21:40.127Z,955.18
2018-08-07T01:24:06.436Z,955.21
2018-08-07T01:26:32.745Z,955.21
2018-08-07T01:28:59.095Z,955.21
2018-08-07T01:31:25.405Z,955.19
2018-08-07T01:33:51.717Z,955.16
2018-08-07T01:36:18.063Z,955.12
2018-08-07T01:38:44.379Z,955.17
2018-08-07T01:41:10.689Z,955.14
2018-08-07T01:43:37.044Z,955.19
2018-08-07T01:46:03.352Z,955.18
2018-08-07T01:48:29.668Z,955.16
2018-08-07T01:50:55.975Z,955.18
2018-08-07T01:53:22.290Z,955.13
2018-08-07T01:55:48.605Z,955.18
2018-08-07T01:58:14.911Z,955.21
2018-08-07T02:00:41.220Z,955.18
2018-08-07T02:03:07.530Z,955.15
2018-08-07T02:05:33.839Z,955.14
2018-08-07T02:08:00.149Z,955.20
2018-08-07T02:10:26.454Z,955.19
2018-08-07T02:12:52.766Z,955.19
2018-08-07T02:15:19.077Z,955.21
2018-08-07T02:17:45.380Z,955.23
2018-08-07T02:20:11.693Z,955.26
2018-08-07T02:22:38.004Z,955.19
2018-08-07T02:25:04.313Z,955.20
2018-08-07T02:27:30.661Z,955.22
2018-08-07T02:29:57.014Z,955.23
2018-08-07T02:32:23.318Z,955.29
2018-08-07T02:34:49.636Z,955.30
2018-08-07T02:37:15.949Z,955.37
2018-08-07T02:39:42.307Z,955.36
2018-08-07T02:42:08.617Z,955.42
2018-08-07T02:44:34.926Z,955.40
2018-08-07T02:47:01.283Z,955.39
2018-08-07T02:49:27.600Z,955.43
2018-08-07T02:51:53.953Z,955.47
2018-08-07T02:54:20.271Z,955.41
2018-08-07T02:56:46.629Z,955.51
2018-08-07T02:59:12.944Z,955.50
2018-08-07T03:01:39.247Z,955.47
2018-08-07T03:04:05.557Z,955.50
2018-08-07T03:06:31.867Z,955.45
2018-08-07T03:08:58.181Z,955.51
2018-08-07T03:11:24.530Z,955.52
2018-08-07T03:13:50.841Z,955.59
2018-08-07T03:16:17.195Z,955.53
2018-08-07T03:18:43.501Z,955.56
2018-08-07T03:21:09.860Z,955.55
2018-08-07T03:23:36.160Z,955.53
2018-08-07T03:26:02.514Z,955.57
2018-08-07T03:28:28.821Z,955.57
2018-08-07T03:30:55.132Z,955.55
2018-08-07T03:33:21.441Z,955.63
2018-08-07T03:35:47.802Z,955.65
2018-08-07T03:38:14.110Z,955.67
2018-08-07T03:40:40.415Z,955.68
2018-08-07T03:43:06.730Z,955.62
2018-08-07T03:45:33.036Z,955.68
2018-08-07T03:47:59.352Z,955.64
2018-08-07T03:50:25.659Z,955.68
2018-08-07T03:52:51.968Z,955.71
2018-08-07T03:55:18.276Z,955.65
2018-08-07T03:57:44.585Z,955.75
2018-08-07T04:00:10.898Z,955.74
2018-08-07T04:02:37.207Z,955.72
2018-08-07T04:05:03.582Z,955.74
2018-08-07T04:07:29.823Z,955.79
2018-08-07T04:09:56.136Z,955.73
2018-08-07T04:12:22.451Z,955.71
2018-08-07T04:14:48.760Z,955.71
2018-08-07T04:17:15.068Z,955.75
2018-08-07T04:19:41.380Z,955.82
2018-08-07T04:22:07.692Z,955.83
2018-08-07T04:24:34.006Z,955.89
2018-08-07T04:27:00.317Z,955.81
2018-08-07T04:29:26.619Z,955.86
2018-08-07T04:31:52.942Z,955.84
2018-08-07T04:34:19.292Z,955.82
2018-08-07T04:36:45.559Z,955.83
2018-08-07T04:39:11.867Z,955.95
2018-08-07T04:41:38.176Z,955.89
2018-08-07T04:44:04.484Z,955.93
2018-08-07T04:46:30.792Z,955.98
2018-08-07T04:48:57.117Z,956.00
2018-08-07T04:51:23.428Z,956.03
2018-08-07T04:53:49.774Z,956.02
2018-08-07T04:56:16.085Z,955.98
2018-08-07T04:58:42.439Z,956.06
2018-08-07T05:01:08.753Z,956.01
2018-08-07T05:03:35.066Z,956.02
2018-08-07T05:06:01.376Z,956.00
2018-08-07T05:08:27.690Z,956.01
2018-08-07T05:10:54.005Z,955.98
2018-08-07T05:13:20.312Z,956.07
2018-08-07T05:15:46.629Z,956.08
2018-08-07T05:18:12.938Z,956.10
2018-08-07T05:20:39.261Z,956.18
2018-08-07T05:23:05.614Z,956.14
2018-08-07T05:25:31.924Z,956.09
2018-08-07T05:27:58.238Z,956.19
2018-08-07T05:30:24.589Z,956.14
2018-08-07T05:32:50.902Z,956.18
2018-08-07T05:35:17.219Z,956.24
2018-08-07T05:37:43.534Z,956.11
2018-08-07T05:40:09.842Z,956.12
2018-08-07T05:42:36.189Z,956.17
2018-08-07T05:45:02.465Z,956.15
2018-08-07T05:47:28.782Z,956.14
2018-08-07T05:49:55.098Z,956.14
2018-08-07T05:52:21.427Z,956.19
2018-08-07T05:54:47.734Z,956.25
2018-08-07T05:57:14.043Z,956.28
2018-08-07T05:59:40.352Z,956.32
2018-08-07T06:02:06.680Z,956.31
2018-08-07T06:04:32.995Z,956.23
2018-08-07T06:06:59.308Z,956.23
2018-08-07T06:09:25.611Z,956.28
2018-08-07T06:11:51.920Z,956.22
2018-08-07T06:14:18.228Z,956.15
2018-08-07T06:16:44.537Z,956.21
2018-08-07T06:19:10.887Z,956.18
2018-08-07T06:21:37.212Z,956.20
2018-08-07T06:24:03.522Z,956.21
2018-08-07T06:26:29.831Z,956.30
2018-08-07T06:28:56.144Z,956.25
2018-08-07T06:31:22.495Z,956.24
2018-08-07T06:33:48.767Z,956.23
2018-08-07T06:36:15.073Z,956.25
2018-08-07T06:38:41.381Z,956.24
2018-08-07T06:41:07.696Z,956.22
2018-08-07T06:43:34.001Z,956.24
2018-08-07T06:46:00.312Z,956.19
2018-08-07T06:48:26.620Z,956.13
2018-08-07T06:50:52.926Z,956.15
2018-08-07T06:53:19.237Z,956.14
2018-08-07T06:55:45.548Z,956.17
2018-08-07T06:58:11.861Z,956.15
2018-08-07T07:00:38.185Z,956.16
2018-08-07T07:03:04.491Z,956.13
2018-08-07T07:05:30.799Z,956.08
2018-08-07T07:07:57.113Z,956.13
2018-08-07T07:10:23.435Z,956.11
2018-08-07T07:12:49.798Z,956.08
2018-08-07T07:15:16.119Z,956.07
2018-08-07T07:17:42.421Z,956.09
2018-08-07T07:20:08.734Z,956.11
2018-08-07T07:22:35.049Z,956.18
2018-08-07T07:25:01.369Z,956.19
2018-08-07T07:27:27.682Z,956.22
2018-08-07T07:29:53.990Z,956.21
2018-08-07T07:32:20.299Z,956.23
2018-08-07T07:34:46.716Z,956.14
2018-08-07T07:37:12.944Z,956.17
2018-08-07T07:39:39.303Z,956.17
2018-08-07T07:42:05.611Z,956.09
2018-08-07T07:44:31.931Z,956.13
2018-08-07T07:46:58.304Z,956.08
2018-08-07T07:49:24.613Z,956.10
2018-08-07T07:51:50.944Z,956.06
2018-08-07T07:54:17.260Z,955.98
2018-08-07T07:56:43.574Z,955.97
2018-08-07T07:59:09.884Z,955.96
2018-08-07T08:01:36.195Z,956.00
2018-08-07T08:04:02.503Z,955.97
2018-08-07T08:06:28.819Z,955.91
2018-08-07T08:08:55.140Z,955.98
2018-08-07T08:11:21.468Z,955.92
2018-08-07T08:13:47.791Z,955.92
2018-08-07T08:16:14.115Z,955.86
2018-08-07T08:18:40.470Z,955.92
2018-08-07T08:21:06.785Z,955.91
2018-08-07T08:23:33.263Z,955.88
2018-08-07T08:25:59.589Z,955.81
2018-08-07T08:28:25.930Z,955.81
2018-08-07T08:30:52.244Z,955.79
2018-08-07T08:33:18.560Z,955.82
2018-08-07T08:35:44.940Z,955.80
2018-08-07T08:38:11.208Z,955.74
2018-08-07T08:40:37.526Z,955.78
2018-08-07T08:43:03.839Z,955.80
2018-08-07T08:45:30.160Z,955.80
2018-08-07T08:47:56.521Z,955.75
2018-08-07T08:50:22.785Z,955.68
2018-08-07T08:52:49.097Z,955.78
2018-08-07T08:55:15.414Z,955.73
2018-08-07T08:57:41.724Z,955.78
2018-08-07T09:00:08.090Z,955.70
2018-08-07T09:02:34.410Z,955.74
2018-08-07T09:05:00.735Z,955.76
2018-08-07T09:07:27.089Z,955.72
2018-08-07T09:09:53.450Z,955.77
2018-08-07T09:12:19.771Z,955.72
2018-08-07T09:14:46.100Z,955.70
2018-08-07T09:17:12.433Z,955.68
2018-08-07T09:19:38.868Z,955.71
2018-08-07T09:22:05.050Z,955.75
2018-08-07T09:24:31.363Z,955.72
2018-08-07T09:26:57.709Z,955.65
2018-08-07T09:29:24.016Z,955.59
2018-08-07T09:31:50.402Z,955.61
2018-08-07T09:34:16.651Z,955.63
2018-08-07T09:36:42.971Z,955.66
2018-08-07T09:39:09.280Z,955.59
2018-08-07T09:41:35.605Z,955.55
2018-08-07T09:44:01.923Z,955.60
2018-08-07T09:46:28.260Z,955.52
2018-08-07T09:48:54.560Z,955.57
2018-08-07T09:51:20.879Z,955.49
2018-08-07T09:53:47.186Z,955.48
2018-08-07T09:56:13.500Z,955.50
2018-08-07T09:58:39.868Z,955.45
2018-08-07T10:01:06.142Z,955.43
2018-08-07T10:03:32.456Z,955.40
2018-08-07T10:05:58.784Z,955.34
2018-08-07T10:08:25.110Z,955.38
2018-08-07T10:10:51.483Z,955.30
2018-08-07T10:13:17.760Z,955.32
2018-08-07T10:15:44.123Z,955.29
2018-08-07T10:18:10.481Z,955.30
2018-08-07T10:20:36.758Z,955.21
2018-08-07T10:23:03.109Z,955.15
2018-08-07T10:25:29.432Z,955.11
2018-08-07T10:27:55.763Z,955.13
2018-08-07T10:30:22.113Z,955.09
2018-08-07T10:32:48.388Z,955.03
2018-08-07T10:35:14.703Z,955.11
2018-08-07T10:37:41.037Z,955.01
2018-08-07T10:40:07.461Z,954.92
2018-08-07T10:42:33.793Z,954.93
2018-08-07T10:45:00.107Z,954.75
2018-08-07T10:47:26.482Z,954.77
2018-08-07T10:49:52.824Z,954.79
2018-08-07T10:52:19.198Z,954.83
2018-08-07T10:54:45.474Z,954.80
2018-08-07T10:57:11.797Z,954.67
2018-08-07T10:59:38.193Z,954.61
2018-08-07T11:02:04.496Z,954.70
2018-08-07T11:04:30.813Z,954.71
2018-08-07T11:06:57.147Z,954.55
2018-08-07T11:09:23.506Z,954.60
2018-08-07T11:11:49.899Z,954.63
2018-08-07T11:14:16.233Z,954.55
2018-08-07T11:16:42.551Z,954.58
2018-08-07T11:19:08.867Z,954.58
2018-08-07T11:21:35.187Z,954.67
2018-08-07T11:24:01.516Z,954.58
2018-08-07T11:26:27.858Z,954.57
2018-08-07T11:28:54.351Z,954.46
2018-08-07T11:31:20.692Z,954.53
2018-08-07T11:33:47.007Z,954.45
2018-08-07T11:36:13.321Z,954.38
2018-08-07T11:38:39.637Z,954.37
2018-08-07T11:41:06.035Z,954.38
2018-08-07T11:43:32.377Z,954.40
2018-08-07T11:45:58.720Z,954.40
2018-08-07T11:48:25.116Z,954.31
2018-08-07T11:50:51.358Z,954.26
2018-08-07T11:53:17.692Z,954.25
2018-08-07T11:55:44.016Z,954.31
2018-08-07T11:58:11.336Z,954.26
2018-08-07T12:00:37.655Z,954.21
2018-08-07T12:03:03.993Z,954.16
2018-08-07T12:05:30.336Z,954.18
2018-08-07T12:07:56.670Z,954.06
2018-08-07T12:10:22.990Z,954.06
2018-08-07T12:12:49.301Z,954.06
2018-08-07T12:15:15.671Z,953.97
2018-08-07T12:17:41.984Z,954.04
2018-08-07T12:20:08.380Z,953.98
2018-08-07T12:22:34.713Z,954.02
2018-08-07T12:25:01.031Z,953.98
2018-08-07T12:27:27.352Z,953.87
2018-08-07T12:29:53.719Z,953.96
2018-08-07T12:32:20.052Z,953.88
2018-08-07T12:34:46.365Z,954.04
2018-08-07T12:37:12.674Z,954.08
2018-08-07T12:39:39.008Z,954.03
2018-08-07T12:42:05.346Z,954.08
2018-08-07T12:44:31.675Z,954.12
2018-08-07T12:46:57.988Z,954.09
2018-08-07T12:49:24.347Z,954.14
2018-08-07T12:51:50.660Z,954.21
2018-08-07T12:54:16.973Z,954.13
2018-08-07T12:56:43.285Z,954.18
2018-08-07T12:59:09.602Z,954.09
2018-08-07T13:01:35.955Z,954.10
2018-08-07T13:06:28.610Z,954.09
2018-08-07T13:08:54.943Z,954.06
2018-08-07T13:11:21.339Z,954.08
2018-08-07T13:13:47.665Z,954.10
2018-08-07T13:16:13.981Z,954.07
2018-08-07T13:18:40.312Z,954.08
2018-08-07T13:21:06.655Z,954.04
2018-08-07T13:23:32.993Z,954.09
2018-08-07T13:25:59.324Z,954.02
2018-08-07T13:28:25.666Z,953.95
2018-08-07T13:30:51.980Z,954.00
2018-08-07T13:33:18.307Z,954.04
2018-08-07T13:35:44.891Z,954.06
2018-08-07T13:38:11.260Z,954.04
2018-08-07T13:40:37.614Z,954.02
2018-08-07T13:43:03.889Z,953.95
2018-08-07T13:45:30.211Z,953.91
2018-08-07T13:47:56.549Z,953.92
2018-08-07T13:50:22.873Z,953.90
2018-08-07T13:52:49.182Z,953.99
2018-08-07T13:55:15.504Z,953.96
2018-08-07T13:57:41.825Z,953.94
2018-08-07T14:00:08.183Z,954.00
2018-08-07T14:02:34.497Z,953.95
2018-08-07T14:05:00.870Z,954.02
2018-08-07T14:07:27.188Z,954.09
2018-08-07T14:09:53.556Z,954.05
2018-08-07T14:12:19.930Z,954.05
2018-08-07T14:14:46.246Z,954.00
2018-08-07T14:17:12.566Z,954.03
2018-08-07T14:19:38.959Z,954.06
2018-08-07T14:22:05.285Z,954.12
2018-08-07T14:24:31.608Z,954.23
2018-08-07T14:26:57.939Z,954.19
2018-08-07T14:29:24.304Z,954.18
2018-08-07T14:31:50.631Z,954.18
2018-08-07T14:34:16.976Z,954.22
2018-08-07T14:36:43.362Z,954.21
2018-08-07T14:39:09.651Z,954.16
2018-08-07T14:41:35.971Z,954.21
2018-08-07T14:44:02.332Z,954.14
2018-08-07T14:46:28.685Z,954.16
2018-08-07T14:48:55.013Z,954.08
2018-08-07T14:51:21.347Z,954.10
2018-08-07T14:53:47.700Z,954.13
2018-08-07T14:56:14.021Z,954.10
2018-08-07T14:58:40.340Z,954.21
2018-08-07T15:01:06.656Z,954.13
2018-08-07T15:03:32.964Z,954.09
2018-08-07T15:05:59.302Z,954.18
2018-08-07T15:08:25.625Z,954.18
2018-08-07T15:10:51.916Z,954.14
2018-08-07T15:13:18.239Z,954.17
2018-08-07T15:15:44.546Z,954.16
2018-08-07T15:18:10.846Z,954.20
2018-08-07T15:20:37.238Z,954.18
2018-08-07T15:23:03.467Z,954.27
2018-08-07T15:25:29.780Z,954.29
2018-08-07T15:27:56.100Z,954.32
2018-08-07T15:30:22.397Z,954.33
2018-08-07T15:32:48.713Z,954.30
2018-08-07T15:35:15.049Z,954.31
2018-08-07T15:37:41.371Z,954.27
2018-08-07T15:40:07.679Z,954.28
2018-08-07T15:42:34.035Z,954.19
2018-08-07T15:45:00.349Z,954.21
2018-08-07T15:47:26.695Z,954.14
2018-08-07T15:49:52.963Z,954.14
2018-08-07T15:52:19.334Z,954.13
2018-08-07T15:54:45.639Z,954.17
2018-08-07T15:57:11.953Z,954.20
2018-08-07T15:59:38.264Z,954.22
2018-08-07T16:02:04.580Z,954.24
2018-08-07T16:04:30.893Z,954.23
2018-08-07T16:06:57.225Z,954.27
2018-08-07T16:09:23.558Z,954.29
2018-08-07T16:11:49.867Z,954.29
2018-08-07T16:14:16.179Z,954.24
2018-08-07T16:16:42.574Z,954.27
2018-08-07T16:19:08.833Z,954.26
2018-08-07T16:21:35.152Z,954.29
2018-08-07T16:24:01.495Z,954.32
2018-08-07T16:26:27.792Z,954.22
2018-08-07T16:28:54.106Z,954.28
2018-08-07T16:31:20.444Z,954.30
2018-08-07T16:33:46.805Z,954.30
2018-08-07T16:36:13.122Z,954.27
2018-08-07T16:38:39.442Z,954.29
2018-08-07T16:41:05.749Z,954.31
2018-08-07T16:43:32.070Z,954.37
2018-08-07T16:45:58.373Z,954.43
2018-08-07T16:48:24.685Z,954.51
2018-08-07T16:50:50.994Z,954.57
2018-08-07T16:53:17.349Z,954.58
2018-08-07T16:55:43.635Z,954.60
2018-08-07T16:58:09.957Z,954.63
2018-08-07T17:00:36.307Z,954.62
2018-08-07T17:03:02.623Z,954.59
2018-08-07T17:05:28.941Z,954.61
2018-08-07T17:07:55.275Z,954.64
2018-08-07T17:10:21.642Z,954.61
2018-08-07T17:12:47.946Z,954.63
2018-08-07T17:15:14.256Z,954.60
2018-08-07T17:17:40.584Z,954.53
2018-08-07T17:20:06.897Z,954.55
2018-08-07T17:22:33.265Z,954.60
2018-08-07T17:24:59.622Z,954.64
2018-08-07T17:27:25.991Z,954.70
2018-08-07T17:29:52.307Z,954.69
2018-08-07T17:32:18.649Z,954.65
2018-08-07T17:34:44.964Z,954.70
2018-08-07T17:37:11.283Z,954.73
2018-08-07T17:39:37.630Z,954.66
2018-08-07T17:42:03.909Z,954.75
2018-08-07T17:44:30.225Z,954.74
2018-08-07T17:46:56.544Z,954.71
2018-08-07T17:49:22.848Z,954.80
2018-08-07T17:51:49.172Z,954.78
2018-08-07T17:54:15.480Z,954.82
2018-08-07T17:56:41.792Z,954.78
2018-08-07T17:59:08.116Z,954.85
2018-08-07T18:01:34.453Z,954.86
2018-08-07T18:04:00.779Z,954.86
2018-08-07T18:06:27.118Z,954.89
2018-08-07T18:08:53.412Z,954.91
2018-08-07T18:11:19.733Z,954.89
2018-08-07T18:13:46.047Z,954.95
2018-08-07T18:16:12.364Z,954.95
2018-08-07T18:18:38.771Z,954.99
2018-08-07T18:21:05.052Z,954.97
2018-08-07T18:23:31.365Z,955.07
2018-08-07T18:25:57.677Z,955.01
2018-08-07T18:28:23.997Z,955.05
2018-08-07T18:30:50.316Z,955.18
2018-08-07T18:33:16.621Z,955.17
2018-08-07T18:35:42.976Z,955.18
2018-08-07T18:38:09.293Z,955.11
2018-08-07T18:40:35.642Z,955.15
2018-08-07T18:43:01.953Z,955.22
2018-08-07T18:45:28.268Z,955.21
2018-08-07T18:47:54.579Z,955.15
2018-08-07T18:50:20.953Z,955.25
2018-08-07T18:52:47.266Z,955.28
2018-08-07T18:55:13.586Z,955.34
2018-08-07T18:57:39.897Z,955.33
2018-08-07T19:00:06.219Z,955.42
2018-08-07T19:02:32.583Z,955.40
2018-08-07T19:04:58.897Z,955.42
2018-08-07T19:07:25.216Z,955.44
2018-08-07T19:09:51.538Z,955.37
2018-08-07T19:12:17.863Z,955.39
2018-08-07T19:14:44.230Z,955.48
2018-08-07T19:17:10.544Z,955.56
2018-08-07T19:19:36.856Z,955.45
2018-08-07T19:22:03.189Z,955.44
2018-08-07T19:24:29.516Z,955.40
2018-08-07T19:26:55.832Z,955.33
2018-08-07T19:29:22.145Z,955.30
2018-08-07T19:31:48.472Z,955.28
2018-08-07T19:34:14.801Z,955.35
2018-08-07T19:36:41.107Z,955.30
2018-08-07T19:39:07.438Z,955.32
2018-08-07T19:41:33.770Z,955.39
2018-08-07T19:44:00.089Z,955.37
2018-08-07T19:46:26.391Z,955.32
2018-08-07T19:48:52.712Z,955.25
2018-08-07T19:51:19.034Z,955.28
2018-08-07T19:53:45.361Z,955.26
2018-08-07T19:56:11.677Z,955.33
2018-08-07T19:58:38.003Z,955.38
2018-08-07T20:01:04.308Z,955.37
2018-08-07T20:03:30.625Z,955.33
2018-08-07T20:05:56.949Z,955.45
2018-08-07T20:08:23.299Z,955.41
2018-08-07T20:10:49.721Z,955.54
2018-08-07T20:13:15.995Z,955.48
2018-08-07T20:15:42.308Z,955.52
2018-08-07T20:18:08.637Z,955.54
2018-08-07T20:20:34.944Z,955.50
2018-08-07T20:23:01.261Z,955.53
2018-08-07T20:25:27.591Z,955.57
2018-08-07T20:27:53.901Z,955.59
2018-08-07T20:30:20.259Z,955.68
2018-08-07T20:32:46.528Z,955.66
2018-08-07T20:35:12.890Z,955.63
2018-08-07T20:37:39.304Z,955.64
2018-08-07T20:40:05.538Z,955.66
2018-08-07T20:42:31.854Z,955.65
2018-08-07T20:44:58.179Z,955.66
2018-08-07T20:47:24.497Z,955.73
2018-08-07T20:49:50.807Z,955.68
2018-08-07T20:52:17.182Z,955.67
2018-08-07T20:54:43.493Z,955.63
2018-08-07T20:57:09.806Z,955.75
2018-08-07T20:59:36.129Z,955.71
2018-08-07T21:02:02.456Z,955.73
2018-08-07T21:04:28.779Z,955.77
2018-08-07T21:06:55.121Z,955.81
2018-08-07T21:09:21.463Z,955.81
2018-08-07T21:11:47.802Z,955.90
2018-08-07T21:14:14.143Z,955.89
2018-08-07T21:16:40.513Z,955.88
2018-08-07T21:19:06.838Z,955.88
2018-08-07T21:21:33.194Z,955.90
2018-08-07T21:23:59.529Z,955.82
2018-08-07T21:26:25.852Z,955.82
2018-08-07T21:28:52.195Z,955.91
2018-08-07T21:31:18.548Z,955.99
2018-08-07T21:33:44.887Z,955.98
2018-08-07T21:36:11.229Z,955.97
2018-08-07T21:38:37.582Z,956.02
2018-08-07T21:41:03.939Z,955.98
2018-08-07T21:43:30.260Z,956.04
2018-08-07T21:45:56.600Z,956.04
2018-08-07T21:48:23.004Z,956.00
2018-08-07T21:50:49.355Z,956.06
2018-08-07T21:53:15.695Z,956.03
2018-08-07T21:55:42.049Z,956.01
2018-08-07T21:58:08.400Z,955.95
2018-08-07T22:00:34.724Z,955.95
2018-08-07T22:03:01.037Z,956.01
2018-08-07T22:05:27.393Z,955.93
2018-08-07T22:07:53.705Z,956.01
2018-08-07T22:10:20.021Z,955.96
2018-08-07T22:12:46.375Z,955.96
2018-08-07T22:15:12.680Z,955.95
2018-08-07T22:17:39.004Z,955.85
2018-08-07T22:20:05.347Z,955.87
2018-08-07T22:22:31.691Z,955.86
2018-08-07T22:24:58.031Z,955.83
2018-08-07T22:27:24.351Z,955.85
2018-08-07T22:29:50.692Z,955.87
2018-08-07T22:32:17.031Z,955.82
2018-08-07T22:34:43.367Z,955.88
2018-08-07T22:37:09.752Z,955.91
2018-08-07T22:39:36.060Z,956.01
2018-08-07T22:42:02.372Z,955.94
2018-08-07T22:44:28.687Z,955.93
2018-08-07T22:46:54.991Z,955.95
2018-08-07T22:49:21.341Z,956.01
2018-08-07T22:51:47.653Z,955.98
2018-08-07T22:54:13.968Z,955.98
2018-08-07T22:56:40.276Z,955.96
2018-08-07T22:59:06.592Z,955.97
2018-08-07T23:01:32.899Z,955.98
2018-08-07T23:03:59.206Z,955.94
2018-08-07T23:06:25.520Z,955.98
2018-08-07T23:08:51.840Z,955.98
2018-08-07T23:11:18.201Z,955.98
2018-08-07T23:13:44.508Z,955.98
2018-08-07T23:16:10.819Z,955.94
2018-08-07T23:18:37.126Z,956.00
2018-08-07T23:21:03.443Z,955.93
2018-08-07T23:23:29.766Z,955.91
2018-08-07T23:25:56.075Z,955.87
2018-08-07T23:28:22.432Z,955.97
2018-08-07T23:30:48.752Z,955.94
2018-08-07T23:33:15.071Z,956.01
2018-08-07T23:35:41.378Z,956.05
2018-08-07T23:38:07.689Z,956.09
2018-08-07T23:40:34.002Z,956.07
2018-08-07T23:43:00.318Z,956.00
2018-08-07T23:45:26.713Z,956.01
2018-08-07T23:47:52.975Z,956.06
2018-08-07T23:50:19.286Z,955.99
2018-08-07T23:52:45.598Z,955.98
2018-08-07T23:55:11.914Z,956.02
2018-08-07T23:57:38.229Z,956.00
